createdAt,value
2022-10-11T00:05:03.891Z,6.68
2022-10-11T00:10:13.547Z,9.15
2022-10-11T00:15:23.351Z,7.30
2022-10-11T00:20:45.173Z,10.38
2022-10-11T00:26:02.879Z,7.68
2022-10-11T00:31:10.623Z,7.40
2022-10-11T00:36:17.573Z,9.27
2022-10-11T00:41:25.904Z,7.80
2022-10-11T00:46:33.855Z,7.65
2022-10-11T00:51:49.459Z,7.70
2022-10-11T00:57:00.147Z,8.02
2022-10-11T01:02:05.371Z,7.28
2022-10-11T01:07:10.410Z,8.18
2022-10-11T01:12:20.823Z,8.15
2022-10-11T01:17:30.425Z,6.65
2022-10-11T01:23:09.502Z,7.38
2022-10-11T01:28:26.599Z,7.68
2022-10-11T01:33:37.109Z,7.60
2022-10-11T01:38:48.078Z,7.03
2022-10-11T01:43:59.000Z,7.47
2022-10-11T01:49:07.679Z,6.78
2022-10-11T01:54:39.412Z,6.05
2022-10-11T01:59:59.120Z,6.03
2022-10-11T02:05:11.785Z,4.90
2022-10-11T02:10:20.801Z,6.20
2022-10-11T02:15:26.329Z,6.28
2022-10-11T02:20:35.654Z,6.30
2022-10-11T02:25:40.927Z,6.17
2022-10-11T02:30:46.373Z,7.35
2022-10-11T02:36:00.544Z,8.38
2022-10-11T02:41:12.499Z,7.22
2022-10-11T02:46:17.897Z,6.20
2022-10-11T02:51:25.777Z,6.35
2022-10-11T02:56:30.769Z,7.97
2022-10-11T03:01:35.843Z,6.68
2022-10-11T03:06:43.829Z,7.03
2022-10-11T03:11:48.989Z,6.45
2022-10-11T03:16:54.091Z,6.95
2022-10-11T03:22:01.865Z,7.05
2022-10-11T03:27:07.061Z,6.53
2022-10-11T03:32:12.121Z,6.05
2022-10-11T03:37:19.725Z,5.38
2022-10-11T03:42:24.757Z,6.00
2022-10-11T03:47:29.945Z,8.57
2022-10-11T03:52:37.842Z,6.22
2022-10-11T03:57:43.011Z,7.47
2022-10-11T04:02:48.181Z,6.28
2022-10-11T04:07:55.884Z,5.50
2022-10-11T04:13:00.995Z,5.95
2022-10-11T04:18:06.850Z,5.97
2022-10-11T04:23:14.498Z,8.13
2022-10-11T04:28:19.592Z,7.28
2022-10-11T04:33:24.717Z,7.18
2022-10-11T04:38:32.384Z,6.82
2022-10-11T04:43:37.516Z,8.23
2022-10-11T04:48:42.561Z,6.68
2022-10-11T04:53:50.933Z,7.05
2022-10-11T04:58:56.759Z,6.63
2022-10-11T05:04:01.783Z,6.65
2022-10-11T05:09:09.817Z,5.95
2022-10-11T05:14:14.826Z,6.68
2022-10-11T05:19:19.930Z,5.20
2022-10-11T05:24:27.625Z,5.95
2022-10-11T05:29:32.830Z,6.18
2022-10-11T05:34:37.891Z,5.13
2022-10-11T05:39:45.489Z,5.57
2022-10-11T05:44:50.539Z,5.07
2022-10-11T05:49:55.637Z,6.10
2022-10-11T05:55:03.533Z,5.72
2022-10-11T06:00:10.014Z,5.55
2022-10-11T06:05:15.084Z,5.85
2022-10-11T06:10:22.966Z,6.18
2022-10-11T06:15:28.155Z,5.68
2022-10-11T06:20:33.266Z,6.47
2022-10-11T06:25:41.014Z,7.40
2022-10-11T06:30:46.069Z,7.03
2022-10-11T06:35:51.167Z,5.95
2022-10-11T06:40:58.921Z,5.45
2022-10-11T06:46:04.212Z,5.50
2022-10-11T06:51:09.467Z,5.55
2022-10-11T06:56:17.118Z,6.22
2022-10-11T07:01:23.863Z,6.22
2022-10-11T07:06:30.722Z,5.72
2022-10-11T07:11:39.017Z,16.63
2022-10-11T07:16:44.144Z,6.07
2022-10-11T07:21:49.149Z,6.10
2022-10-11T07:26:56.764Z,4.82
2022-10-11T07:32:01.761Z,5.55
2022-10-11T07:37:06.897Z,5.20
2022-10-11T07:42:14.540Z,6.15
2022-10-11T07:47:19.638Z,5.07
2022-10-11T07:52:24.949Z,4.82
2022-10-11T07:57:32.742Z,4.80
2022-10-11T08:02:37.773Z,3.85
2022-10-11T08:07:43.079Z,5.95
2022-10-11T08:12:53.948Z,5.00
2022-10-11T08:17:59.048Z,4.57
2022-10-11T08:23:04.250Z,4.07
2022-10-11T08:28:15.943Z,5.40
2022-10-11T08:33:21.943Z,4.32
2022-10-11T08:38:27.249Z,6.03
2022-10-11T08:43:41.370Z,4.47
2022-10-11T08:48:49.279Z,6.63
2022-10-11T08:54:02.337Z,5.80
2022-10-11T08:59:24.205Z,4.53
2022-10-11T09:04:29.189Z,4.45
2022-10-11T09:09:58.911Z,4.55
2022-10-11T09:20:30.519Z,4.63
2022-10-11T09:25:37.453Z,5.25
2022-10-11T09:30:50.993Z,4.95
2022-10-11T09:35:56.426Z,5.03
2022-10-11T09:41:11.129Z,4.90
2022-10-11T09:46:27.919Z,4.10
2022-10-11T09:51:33.260Z,5.18
2022-10-11T09:56:44.119Z,4.90
2022-10-11T10:01:52.052Z,4.28
2022-10-11T10:07:13.885Z,4.63
2022-10-11T10:12:25.033Z,5.20
2022-10-11T10:17:32.787Z,4.68
2022-10-11T10:22:38.742Z,5.10
2022-10-11T10:27:44.287Z,5.30
2022-10-11T10:32:56.056Z,5.13
2022-10-11T10:38:15.651Z,5.25
2022-10-11T10:43:22.935Z,4.82
2022-10-11T10:49:11.778Z,5.22
2022-10-11T10:54:07.018Z,5.93
2022-10-11T10:59:35.410Z,6.22
2022-10-11T11:04:47.838Z,5.90
2022-10-11T11:09:57.654Z,5.22
2022-10-11T11:15:05.796Z,6.32
2022-10-11T11:20:29.057Z,5.53
2022-10-11T11:25:44.656Z,5.75
2022-10-11T11:30:59.249Z,11.07
2022-10-11T11:36:12.774Z,6.32
2022-10-11T11:41:22.878Z,6.30
2022-10-11T11:46:29.946Z,6.35
2022-10-11T11:51:41.203Z,6.53
2022-10-11T11:56:53.630Z,6.25
2022-10-11T12:02:05.382Z,6.80
2022-10-11T12:07:17.005Z,6.75
2022-10-11T12:12:32.218Z,6.47
2022-10-11T12:17:37.682Z,6.43
2022-10-11T12:23:01.272Z,8.13
2022-10-11T12:28:41.290Z,10.35
2022-10-11T12:34:20.455Z,12.68
2022-10-11T12:39:49.450Z,11.55
2022-10-11T12:45:24.250Z,17.50
2022-10-11T12:50:34.255Z,19.17
2022-10-11T12:55:49.137Z,18.55
2022-10-11T13:01:17.739Z,17.30
2022-10-11T13:06:25.169Z,14.68
2022-10-11T13:11:36.245Z,9.70
2022-10-11T13:17:02.771Z,10.15
2022-10-11T13:22:09.622Z,11.30
2022-10-11T13:27:22.311Z,10.20
2022-10-11T13:32:29.812Z,10.52
2022-10-11T13:37:44.374Z,7.38
2022-10-11T13:42:52.810Z,8.38
2022-10-11T13:47:58.918Z,12.35
2022-10-11T13:53:06.239Z,11.50
2022-10-11T13:58:19.994Z,12.00
2022-10-11T14:03:25.669Z,11.63
2022-10-11T14:08:34.669Z,12.77
2022-10-11T14:13:45.104Z,11.85
2022-10-11T14:18:51.967Z,13.52
2022-10-11T14:23:58.285Z,13.90
2022-10-11T14:29:10.270Z,12.43
2022-10-11T14:34:20.762Z,16.55
2022-10-11T14:39:27.820Z,20.73
2022-10-11T14:44:35.435Z,21.60
2022-10-11T14:49:40.734Z,21.63
2022-10-11T14:54:45.780Z,21.08
2022-10-11T14:59:53.389Z,20.40
2022-10-11T15:04:58.399Z,21.40
2022-10-11T15:10:03.403Z,18.67
2022-10-11T15:15:16.740Z,11.43
2022-10-11T15:20:26.974Z,12.18
2022-10-11T15:25:32.775Z,12.05
2022-10-11T15:30:41.879Z,12.77
2022-10-11T15:35:47.154Z,14.63
2022-10-11T15:40:52.335Z,15.13
2022-10-11T15:46:00.492Z,15.35
2022-10-11T15:51:05.510Z,14.43
2022-10-11T15:56:12.749Z,17.20
2022-10-11T16:01:22.408Z,15.65
2022-10-11T16:06:27.735Z,15.43
2022-10-11T16:11:32.776Z,13.43
2022-10-11T16:16:40.436Z,14.20
2022-10-11T16:21:45.473Z,14.18
2022-10-11T16:26:50.447Z,15.18
2022-10-11T16:31:58.084Z,14.95
2022-10-11T16:37:03.340Z,16.10
2022-10-11T16:42:08.447Z,16.15
2022-10-11T16:47:16.858Z,16.33
2022-10-11T16:52:22.091Z,17.20
2022-10-11T16:57:27.268Z,17.33
2022-10-11T17:02:35.101Z,20.42
2022-10-11T17:07:40.073Z,23.85
2022-10-11T17:12:49.869Z,28.23
2022-10-11T17:17:58.899Z,30.45
2022-10-11T17:23:03.979Z,28.08
2022-10-11T17:28:09.051Z,26.15
2022-10-11T17:33:16.742Z,33.28
2022-10-11T17:38:22.556Z,30.02
2022-10-11T17:43:27.575Z,27.92
2022-10-11T17:48:37.115Z,28.63
2022-10-11T17:53:42.350Z,32.35
2022-10-11T17:58:47.667Z,32.85
2022-10-11T18:04:00.188Z,36.75
2022-10-11T18:09:06.832Z,36.22
2022-10-11T18:14:13.306Z,29.63
2022-10-11T18:19:20.936Z,26.05
2022-10-11T18:24:26.039Z,23.58
2022-10-11T18:29:31.266Z,26.08
2022-10-11T18:34:39.187Z,25.63
2022-10-11T18:39:44.336Z,30.38
2022-10-11T18:44:49.707Z,31.70
2022-10-11T18:49:57.504Z,33.60
2022-10-11T18:55:04.104Z,32.22
2022-10-11T19:00:22.663Z,31.05
2022-10-11T19:05:42.404Z,33.10
2022-10-11T19:10:47.487Z,38.22
2022-10-11T19:15:52.626Z,38.92
2022-10-11T19:21:04.545Z,59.72
2022-10-11T19:26:10.255Z,53.40
2022-10-11T19:31:17.385Z,43.85
2022-10-11T19:36:25.095Z,45.85
2022-10-11T19:41:30.467Z,44.88
2022-10-11T19:46:50.959Z,36.45
2022-10-11T19:52:01.375Z,32.67
2022-10-11T19:57:08.932Z,30.90
2022-10-11T20:02:15.823Z,31.83
2022-10-11T20:07:23.905Z,39.33
2022-10-11T20:12:29.745Z,45.00
2022-10-11T20:17:46.984Z,49.60
2022-10-11T20:22:54.871Z,31.45
2022-10-11T20:27:59.924Z,30.77
2022-10-11T20:33:05.076Z,30.45
2022-10-11T20:38:12.932Z,29.23
2022-10-11T20:43:18.102Z,27.88
2022-10-11T20:48:23.241Z,28.88
2022-10-11T20:53:31.438Z,28.35
2022-10-11T20:58:36.968Z,26.38
2022-10-11T21:03:42.622Z,27.70
2022-10-11T21:08:50.552Z,26.80
2022-10-11T21:14:08.521Z,27.08
2022-10-11T21:19:16.469Z,28.85
2022-10-11T21:24:27.560Z,28.52
2022-10-11T21:29:32.762Z,27.25
2022-10-11T21:34:37.927Z,27.92
2022-10-11T21:39:45.754Z,26.83
2022-10-11T21:45:32.820Z,30.00
2022-10-11T21:50:38.032Z,30.08
2022-10-11T21:55:45.932Z,32.42
2022-10-11T22:00:51.022Z,32.65
2022-10-11T22:05:56.129Z,32.95
2022-10-11T22:11:04.262Z,30.63
2022-10-11T22:16:11.115Z,30.15
2022-10-11T22:21:19.333Z,31.50
2022-10-11T22:26:30.037Z,33.95
2022-10-11T22:31:35.127Z,30.42
2022-10-11T22:36:40.338Z,29.65
2022-10-11T22:41:48.423Z,35.58
2022-10-11T22:46:53.683Z,39.47
2022-10-11T22:51:58.922Z,43.17
2022-10-11T22:57:06.950Z,42.95
2022-10-11T23:02:12.306Z,41.58
2022-10-11T23:07:17.386Z,40.75
2022-10-11T23:12:25.190Z,40.33
2022-10-11T23:17:30.392Z,41.60
2022-10-11T23:22:35.645Z,40.67
2022-10-11T23:27:43.468Z,38.75
2022-10-11T23:32:48.565Z,39.75
2022-10-11T23:37:53.831Z,39.28
2022-10-11T23:43:01.607Z,38.97
2022-10-11T23:48:06.988Z,38.00
2022-10-11T23:53:13.403Z,38.15
2022-10-11T23:58:21.207Z,38.22
